Denver, Colorado
Traffic Map
Current Weather Conditions
Denver, Colorado
Broken Clouds
Broken Clouds
81°
Feels Like: 81°
Wind Chill: 81° Ceiling: 22000
Heat Index: 81° Visibility: 10mi
Dew Point: 52° Wind: 13mph
Humidity: 36% Direction: 30° (NNE)
Pressure: 29.91in Gusts: 0mph
Raw Report DataKDEN 192253Z 03011KT 10SM FEW110 FEW140 BKN220 27/11 A2991 RMK AO2 SLP046 OCNL LTGICCG DSNT SW AND NW CB DSNT SW AND NW MOV NE T02720111
Traffic Incident Summary
Active as of:
Severity:
Category:
InformationThere was an issue retrieving the traffic information for this location. Please try a different location or try again shortly.
Advertisements